Terminal Aerodrome Forecast
Issued by NWS

Home | Current Version | Previous Version | Text Only | Print | Product List | Glossary On
Versions: 1 2 3 4 5 6 7 8 9 10 11 12 13 14 15 16 17 18 19 20 21 22 23 24 25 26 27 28 29 30 31 32 33
896
FTUS43 KDMX 280539
TAFMCW
TAF
KMCW 280539Z 2806/2906 16011G17KT P6SM BKN040
     FM280800 16011G20KT P6SM VCTS SCT020 OVC040CB WS020/19040KT
      TEMPO 2808/2811 4SM TSRA OVC040CB
     FM281100 19014G23KT P6SM VCSH OVC035 WS020/20045KT
     FM281400 20015G23KT P6SM BKN035 BKN150
     FM282300 22016G25KT P6SM VCSH BKN050
     FM290200 25006KT P6SM SCT020 BKN040=

USA.gov is the U.S. government's official web portal to all federal, state and local government web resources and services.